Revere Beach, Massachusetts
Current Conditions -  °F | °C
As of 7:54 AM on Monday 20 Oct 2014 (Local Time) from KBOS Reporting Station
Scattered Clouds Scattered Clouds  
Wind Chill: 32°   Ceiling: Unl
Heat Index: 39°   Visibility: 10mi
Dew Point: 28°   Wind: 10mph
Humidity: 65%   Direction: 220°SW
Pressure: 30.05"   Gusts: NA
Location:  42.4188°N, 71.0044°W
Report Text: KBOS 201154Z 22009KT 10SM FEW050 SCT180 SCT250 04/M02 A3005 RMK AO2 SLP176 T00391022 10050 20039 51015
Loading
Personal Weather Stations






























Interactive Weather Map
Tropical Storm Tracking
New forecast layout! Learn more

10-Day Weather Forecast

Advertisements
Track Severe Weather on mobile